createdAt,value
2022-10-07T00:00:48.080Z,2.17
2022-10-07T00:03:35.829Z,1.97
2022-10-07T00:06:23.512Z,2.07
2022-10-07T00:09:10.957Z,2.07
2022-10-07T00:11:58.660Z,2.00
2022-10-07T00:14:46.094Z,1.90
2022-10-07T00:17:33.510Z,2.00
2022-10-07T00:20:20.884Z,2.30
2022-10-07T00:23:09.353Z,2.17
2022-10-07T00:26:00.114Z,2.10
2022-10-07T00:28:47.688Z,2.00
2022-10-07T00:31:36.234Z,2.10
2022-10-07T00:34:23.650Z,2.17
2022-10-07T00:37:10.955Z,2.13
2022-10-07T00:39:58.279Z,2.00
2022-10-07T00:42:45.639Z,2.00
2022-10-07T00:45:40.158Z,1.90
2022-10-07T00:48:31.023Z,1.87
2022-10-07T00:51:18.632Z,2.03
2022-10-07T00:54:08.689Z,1.73
2022-10-07T00:56:56.262Z,2.40
2022-10-07T00:59:43.667Z,2.27
2022-10-07T01:02:31.244Z,2.37
2022-10-07T01:05:19.082Z,2.10
2022-10-07T01:08:06.443Z,1.80
2022-10-07T01:11:15.509Z,2.07
2022-10-07T01:14:21.787Z,2.33
2022-10-07T01:17:19.796Z,3.13
2022-10-07T01:20:22.391Z,3.70
2022-10-07T01:23:31.955Z,2.90
2022-10-07T01:26:28.572Z,2.77
2022-10-07T01:29:22.345Z,2.30
2022-10-07T01:32:42.278Z,2.40
2022-10-07T01:35:33.451Z,2.20
2022-10-07T01:38:22.876Z,2.30
2022-10-07T01:41:11.840Z,2.83
2022-10-07T01:44:00.020Z,2.40
2022-10-07T01:46:47.762Z,2.30
2022-10-07T01:49:35.106Z,2.67
2022-10-07T01:52:25.143Z,2.17
2022-10-07T01:55:32.760Z,2.80
2022-10-07T01:58:35.387Z,2.37
2022-10-07T02:01:25.840Z,2.33
2022-10-07T02:04:31.897Z,2.60
2022-10-07T02:07:19.272Z,2.60
2022-10-07T02:10:06.742Z,3.23
2022-10-07T02:13:17.156Z,2.33
2022-10-07T02:16:05.835Z,2.80
2022-10-07T02:18:54.273Z,2.30
2022-10-07T02:21:42.973Z,2.10
2022-10-07T02:24:33.915Z,2.23
2022-10-07T02:27:23.772Z,2.60
2022-10-07T02:30:12.795Z,3.20
2022-10-07T02:33:03.801Z,2.43
2022-10-07T02:35:58.039Z,2.83
2022-10-07T02:38:45.671Z,2.40
2022-10-07T02:41:49.355Z,2.20
2022-10-07T02:44:49.688Z,3.90
2022-10-07T02:47:41.537Z,5.90
2022-10-07T02:50:32.266Z,6.90
2022-10-07T02:53:21.167Z,8.27
2022-10-07T02:56:08.672Z,5.90
2022-10-07T02:58:56.392Z,5.73
2022-10-07T03:01:47.068Z,4.10
2022-10-07T03:04:34.577Z,3.10
2022-10-07T03:07:23.231Z,3.60
2022-10-07T03:10:10.720Z,3.07
2022-10-07T03:12:58.127Z,3.37
2022-10-07T03:15:45.845Z,2.90
2022-10-07T03:18:33.310Z,3.27
2022-10-07T03:21:20.700Z,2.90
2022-10-07T03:24:08.153Z,2.93
2022-10-07T03:26:56.463Z,3.17
2022-10-07T03:29:43.837Z,3.00
2022-10-07T03:32:31.176Z,3.80
2022-10-07T03:35:18.642Z,3.17
2022-10-07T03:38:08.327Z,2.77
2022-10-07T03:40:55.897Z,2.70
2022-10-07T03:43:43.641Z,2.80
2022-10-07T03:46:31.135Z,2.63
2022-10-07T03:49:19.926Z,3.10
2022-10-07T03:52:07.235Z,2.50
2022-10-07T03:54:56.047Z,3.03
2022-10-07T03:57:59.647Z,3.07
2022-10-07T04:00:47.790Z,3.00
2022-10-07T04:03:35.182Z,3.27
2022-10-07T04:06:22.540Z,3.40
2022-10-07T04:09:12.439Z,3.20
2022-10-07T04:11:59.775Z,2.80
2022-10-07T04:14:47.115Z,3.20
2022-10-07T04:17:34.648Z,2.93
2022-10-07T04:20:21.996Z,2.77
2022-10-07T04:23:09.659Z,2.63
2022-10-07T04:25:57.055Z,2.40
2022-10-07T04:28:44.785Z,2.50
2022-10-07T04:31:32.569Z,2.97
2022-10-07T04:34:19.907Z,2.87
2022-10-07T04:37:07.247Z,2.83
2022-10-07T04:40:00.774Z,3.17
2022-10-07T04:43:08.236Z,2.80
2022-10-07T04:46:15.858Z,2.70
2022-10-07T04:49:03.239Z,3.43
2022-10-07T04:51:50.861Z,2.80
2022-10-07T04:54:39.341Z,2.80
2022-10-07T04:57:26.685Z,2.70
2022-10-07T05:00:14.100Z,4.03
2022-10-07T05:03:01.704Z,3.47
2022-10-07T05:05:50.369Z,2.70
2022-10-07T05:08:37.783Z,2.57
2022-10-07T05:11:25.895Z,2.80
2022-10-07T05:14:13.248Z,3.10
2022-10-07T05:17:00.750Z,3.10
2022-10-07T05:19:48.277Z,2.70
2022-10-07T05:22:35.689Z,2.70
2022-10-07T05:25:23.292Z,2.60
2022-10-07T05:28:11.461Z,2.90
2022-10-07T05:31:02.679Z,2.20
2022-10-07T05:33:50.094Z,2.70
2022-10-07T05:36:37.953Z,2.90
2022-10-07T05:39:25.483Z,2.80
2022-10-07T05:42:13.595Z,2.80
2022-10-07T05:45:02.003Z,2.40
2022-10-07T05:47:49.335Z,2.97
2022-10-07T05:50:36.662Z,3.10
2022-10-07T05:53:24.881Z,2.50
2022-10-07T05:56:12.783Z,2.73
2022-10-07T05:59:00.197Z,2.63
2022-10-07T06:01:47.897Z,2.60
2022-10-07T06:04:35.341Z,2.67
2022-10-07T06:07:28.996Z,2.60
2022-10-07T06:10:35.520Z,3.00
2022-10-07T06:13:23.982Z,3.13
2022-10-07T06:16:11.340Z,2.60
2022-10-07T06:18:59.763Z,2.33
2022-10-07T06:21:47.091Z,2.80
2022-10-07T06:24:35.160Z,2.40
2022-10-07T06:27:22.850Z,3.00
2022-10-07T06:30:10.397Z,2.63
2022-10-07T06:32:57.759Z,3.03
2022-10-07T06:35:45.702Z,2.53
2022-10-07T06:38:33.116Z,2.73
2022-10-07T06:41:21.201Z,2.60
2022-10-07T06:44:08.544Z,2.50
2022-10-07T06:46:55.888Z,2.90
2022-10-07T06:49:43.206Z,2.90
2022-10-07T06:52:30.610Z,5.00
2022-10-07T06:55:17.961Z,3.23
2022-10-07T06:58:10.580Z,8.33
2022-10-07T07:01:02.428Z,4.97
2022-10-07T07:03:49.795Z,3.50
2022-10-07T07:06:37.588Z,3.10
2022-10-07T07:09:25.038Z,3.27
2022-10-07T07:12:12.384Z,2.97
2022-10-07T07:15:00.299Z,2.83
2022-10-07T07:17:48.537Z,2.67
2022-10-07T07:20:37.304Z,3.00
2022-10-07T07:23:25.568Z,2.93
2022-10-07T07:26:13.219Z,2.80
2022-10-07T07:29:02.191Z,2.73
2022-10-07T07:31:50.918Z,2.40
2022-10-07T07:34:38.696Z,3.17
2022-10-07T07:37:26.121Z,3.17
2022-10-07T07:40:13.634Z,2.70
2022-10-07T07:43:02.334Z,2.40
2022-10-07T07:45:50.845Z,3.03
2022-10-07T07:48:38.213Z,2.30
2022-10-07T07:51:25.616Z,2.60
2022-10-07T07:54:13.384Z,2.73
2022-10-07T07:57:00.793Z,2.17
2022-10-07T07:59:48.212Z,2.90
2022-10-07T08:02:35.882Z,2.83
2022-10-07T08:05:24.258Z,2.30
2022-10-07T08:08:12.412Z,2.33
2022-10-07T08:11:15.050Z,2.20
2022-10-07T08:14:03.270Z,2.50
2022-10-07T08:16:51.479Z,2.63
2022-10-07T08:19:38.874Z,2.23
2022-10-07T08:22:26.196Z,2.37
2022-10-07T08:25:15.148Z,2.00
2022-10-07T08:28:03.359Z,2.33
2022-10-07T08:30:51.330Z,2.20
2022-10-07T08:33:40.593Z,2.53
2022-10-07T08:36:29.339Z,2.30
2022-10-07T08:39:16.813Z,2.83
2022-10-07T08:42:05.508Z,2.33
2022-10-07T08:44:53.197Z,2.80
2022-10-07T08:47:43.690Z,2.87
2022-10-07T08:50:52.286Z,3.00
2022-10-07T08:53:40.139Z,2.23
2022-10-07T08:56:29.883Z,2.43
2022-10-07T08:59:17.309Z,2.70
2022-10-07T09:02:07.729Z,2.50
2022-10-07T09:05:07.491Z,2.60
2022-10-07T09:07:57.458Z,2.40
2022-10-07T09:10:50.131Z,2.50
2022-10-07T09:13:40.344Z,2.20
2022-10-07T09:16:36.565Z,2.90
2022-10-07T09:19:32.599Z,2.67
2022-10-07T09:22:21.623Z,2.67
2022-10-07T09:25:11.791Z,2.50
2022-10-07T09:27:59.134Z,2.58
2022-10-07T09:30:46.607Z,2.45
2022-10-07T09:33:37.059Z,2.60
2022-10-07T09:36:26.049Z,2.60
2022-10-07T09:39:23.223Z,2.47
2022-10-07T09:42:19.159Z,2.58
2022-10-07T09:45:32.577Z,2.55
2022-10-07T09:48:22.336Z,2.63
2022-10-07T09:51:15.321Z,2.75
2022-10-07T09:54:04.629Z,2.90
2022-10-07T09:56:56.751Z,2.78
2022-10-07T09:59:44.121Z,2.53
2022-10-07T10:02:32.013Z,2.58
2022-10-07T10:05:20.873Z,2.58
2022-10-07T10:08:20.939Z,3.10
2022-10-07T10:11:18.385Z,2.22
2022-10-07T10:14:24.568Z,2.33
2022-10-07T10:17:24.200Z,2.60
2022-10-07T10:20:20.639Z,2.63
2022-10-07T10:23:28.896Z,2.15
2022-10-07T10:26:31.087Z,2.80
2022-10-07T10:29:20.834Z,2.85
2022-10-07T10:32:20.122Z,1.98
2022-10-07T10:35:13.930Z,2.22
2022-10-07T10:38:04.508Z,2.80
2022-10-07T10:40:59.716Z,2.58
2022-10-07T10:44:03.285Z,2.30
2022-10-07T10:46:56.182Z,2.33
2022-10-07T10:49:50.604Z,2.63
2022-10-07T10:53:16.590Z,2.75
2022-10-07T10:56:38.033Z,2.17
2022-10-07T10:59:49.397Z,2.30
2022-10-07T11:02:40.495Z,2.42
2022-10-07T11:05:42.427Z,1.73
2022-10-07T11:08:38.041Z,1.95
2022-10-07T11:11:26.617Z,2.33
2022-10-07T11:14:18.734Z,2.55
2022-10-07T11:17:07.281Z,2.17
2022-10-07T11:20:25.193Z,2.25
2022-10-07T11:23:41.963Z,2.30
2022-10-07T11:26:41.613Z,2.28
2022-10-07T11:29:43.941Z,2.30
2022-10-07T11:32:59.388Z,1.98
2022-10-07T11:35:55.259Z,2.08
2022-10-07T11:38:43.083Z,2.13
2022-10-07T11:41:35.518Z,2.28
2022-10-07T11:44:29.815Z,2.10
2022-10-07T11:47:20.084Z,2.42
2022-10-07T11:50:14.050Z,2.85
2022-10-07T11:53:06.249Z,2.45
2022-10-07T11:56:06.873Z,2.22
2022-10-07T11:59:06.505Z,2.67
2022-10-07T12:01:53.625Z,2.00
2022-10-07T12:04:40.749Z,2.20
2022-10-07T12:07:36.883Z,2.28
2022-10-07T12:10:32.033Z,2.03
2022-10-07T12:13:20.574Z,1.70
2022-10-07T12:16:32.530Z,2.13
2022-10-07T12:19:23.552Z,2.45
2022-10-07T12:22:15.050Z,2.10
2022-10-07T12:25:29.054Z,2.40
2022-10-07T12:28:40.654Z,2.40
2022-10-07T12:31:46.189Z,2.10
2022-10-07T12:34:41.274Z,2.25
2022-10-07T12:37:49.932Z,2.53
2022-10-07T12:40:38.361Z,3.47
2022-10-07T12:43:45.064Z,2.65
2022-10-07T12:46:38.052Z,2.28
2022-10-07T12:49:37.274Z,2.03
2022-10-07T12:52:53.085Z,1.92
2022-10-07T12:55:47.857Z,2.20
2022-10-07T12:59:15.903Z,2.10
2022-10-07T13:02:41.730Z,2.28
2022-10-07T13:06:17.817Z,1.97
2022-10-07T13:09:31.277Z,2.40
2022-10-07T13:12:50.839Z,3.23
2022-10-07T13:15:59.552Z,3.22
2022-10-07T13:19:04.342Z,2.20
2022-10-07T13:22:05.486Z,2.20
2022-10-07T13:24:56.144Z,2.75
2022-10-07T13:27:53.127Z,2.67
2022-10-07T13:30:42.092Z,2.30
2022-10-07T13:33:31.246Z,2.50
2022-10-07T13:36:24.293Z,2.30
2022-10-07T13:39:13.012Z,2.60
2022-10-07T13:42:01.957Z,2.38
2022-10-07T13:44:48.911Z,2.00
2022-10-07T13:47:36.226Z,2.45
2022-10-07T13:50:26.688Z,2.00
2022-10-07T13:53:35.108Z,2.97
2022-10-07T13:56:26.767Z,2.70
2022-10-07T13:59:18.559Z,2.10
2022-10-07T14:02:12.326Z,2.23
2022-10-07T14:05:17.534Z,2.53
2022-10-07T14:08:22.785Z,2.30
2022-10-07T14:11:21.282Z,2.05
2022-10-07T14:14:18.665Z,1.83
2022-10-07T14:17:23.907Z,1.92
2022-10-07T14:20:32.418Z,1.90
2022-10-07T14:23:34.796Z,2.30
2022-10-07T14:26:21.798Z,2.47
2022-10-07T14:29:27.490Z,2.13
2022-10-07T14:32:39.686Z,2.35
2022-10-07T14:35:26.984Z,2.40
2022-10-07T14:38:31.873Z,2.17
2022-10-07T14:41:22.129Z,2.50
2022-10-07T14:44:09.085Z,2.10
2022-10-07T14:47:20.812Z,2.43
2022-10-07T14:50:08.109Z,2.50
2022-10-07T14:52:55.028Z,2.90
2022-10-07T14:55:42.755Z,2.37
2022-10-07T14:58:30.441Z,2.53
2022-10-07T15:01:17.416Z,2.50
2022-10-07T15:04:04.379Z,2.20
2022-10-07T15:06:54.802Z,2.27
2022-10-07T15:09:43.591Z,1.87
2022-10-07T15:12:30.622Z,2.17
2022-10-07T15:15:18.103Z,2.73
2022-10-07T15:18:06.943Z,2.37
2022-10-07T15:20:57.577Z,3.20
2022-10-07T15:23:44.940Z,2.30
2022-10-07T15:26:31.959Z,2.33
2022-10-07T15:29:19.441Z,2.17
2022-10-07T15:32:08.319Z,2.60
2022-10-07T15:34:55.484Z,2.13
2022-10-07T15:37:45.703Z,2.13
2022-10-07T15:40:32.609Z,2.93
2022-10-07T15:43:19.617Z,2.47
2022-10-07T15:46:06.593Z,2.30
2022-10-07T15:48:57.369Z,2.70
2022-10-07T15:51:46.136Z,1.97
2022-10-07T15:54:33.110Z,2.50
2022-10-07T15:57:22.317Z,2.33
2022-10-07T16:00:10.555Z,2.10
2022-10-07T16:02:58.039Z,2.00
2022-10-07T16:05:44.960Z,2.60
2022-10-07T16:08:32.376Z,2.03
2022-10-07T16:11:20.353Z,2.53
2022-10-07T16:14:09.708Z,2.73
2022-10-07T16:16:59.574Z,2.20
2022-10-07T16:19:47.909Z,2.33
2022-10-07T16:22:34.903Z,2.47
2022-10-07T16:25:21.813Z,2.67
2022-10-07T16:28:28.166Z,2.63
2022-10-07T16:31:15.273Z,2.43
2022-10-07T16:34:03.314Z,2.13
2022-10-07T16:36:50.589Z,2.50
2022-10-07T16:39:37.541Z,2.13
2022-10-07T16:42:24.468Z,2.70
2022-10-07T16:45:11.787Z,2.63
2022-10-07T16:47:58.717Z,2.40
2022-10-07T16:50:47.669Z,2.77
2022-10-07T16:53:34.847Z,2.13
2022-10-07T16:56:22.810Z,2.37
2022-10-07T16:59:11.682Z,2.13
2022-10-07T17:02:02.299Z,2.13
2022-10-07T17:04:49.604Z,2.47
2022-10-07T17:07:36.761Z,2.30
2022-10-07T17:10:24.236Z,2.20
2022-10-07T17:13:11.653Z,2.03
2022-10-07T17:15:58.590Z,2.47
2022-10-07T17:18:45.688Z,2.73
2022-10-07T17:21:34.856Z,2.13
2022-10-07T17:24:23.185Z,2.00
2022-10-07T17:27:10.153Z,2.40
2022-10-07T17:29:57.100Z,2.40
2022-10-07T17:32:44.069Z,2.70
2022-10-07T17:35:32.542Z,1.93
2022-10-07T17:38:19.679Z,2.73
2022-10-07T17:41:12.352Z,2.43
2022-10-07T17:44:02.121Z,2.30
2022-10-07T17:46:49.321Z,2.60
2022-10-07T17:49:36.273Z,2.50
2022-10-07T17:52:27.299Z,2.10
2022-10-07T17:55:14.869Z,2.47
2022-10-07T17:58:01.819Z,3.20
2022-10-07T18:00:48.809Z,2.80
2022-10-07T18:03:38.328Z,2.70
2022-10-07T18:06:27.293Z,3.20
2022-10-07T18:09:18.170Z,2.43
2022-10-07T18:12:23.829Z,2.87
2022-10-07T18:15:20.613Z,3.00
2022-10-07T18:18:07.738Z,2.90
2022-10-07T18:20:54.909Z,2.70
2022-10-07T18:23:42.221Z,5.37
2022-10-07T18:26:29.228Z,6.73
2022-10-07T18:29:18.384Z,5.60
2022-10-07T18:32:06.718Z,6.60
2022-10-07T18:34:53.770Z,7.40
2022-10-07T18:37:40.678Z,16.27
2022-10-07T18:40:27.608Z,7.03
2022-10-07T18:43:15.697Z,7.40
2022-10-07T18:46:06.610Z,3.13
2022-10-07T18:48:54.122Z,3.10
2022-10-07T18:51:41.567Z,2.30
2022-10-07T18:54:28.624Z,2.83
2022-10-07T18:57:15.731Z,2.60
2022-10-07T19:00:02.959Z,1.90
2022-10-07T19:02:51.164Z,2.33
2022-10-07T19:05:39.756Z,2.63
2022-10-07T19:08:26.669Z,2.67
2022-10-07T19:11:16.399Z,2.40
2022-10-07T19:14:03.586Z,2.30
2022-10-07T19:16:50.876Z,2.97
2022-10-07T19:19:41.124Z,2.07
2022-10-07T19:22:28.103Z,2.60
2022-10-07T19:25:33.823Z,2.33
2022-10-07T19:28:21.567Z,2.63
2022-10-07T19:31:19.661Z,2.40
2022-10-07T19:34:09.695Z,2.30
2022-10-07T19:36:57.328Z,2.70
2022-10-07T19:39:44.278Z,1.97
2022-10-07T19:42:31.235Z,2.27
2022-10-07T19:45:18.148Z,2.30
2022-10-07T19:48:09.322Z,2.90
2022-10-07T19:51:03.771Z,2.27
2022-10-07T19:53:51.418Z,2.20
2022-10-07T19:56:39.748Z,2.93
2022-10-07T19:59:27.225Z,2.40
2022-10-07T20:02:14.782Z,2.17
2022-10-07T20:05:02.606Z,2.30
2022-10-07T20:07:51.071Z,2.13
2022-10-07T20:10:39.011Z,2.53
2022-10-07T20:13:26.546Z,2.60
2022-10-07T20:16:21.432Z,2.27
2022-10-07T20:19:14.196Z,2.27
2022-10-07T20:22:03.194Z,2.13
2022-10-07T20:24:50.906Z,2.60
2022-10-07T20:27:39.080Z,2.33
2022-10-07T20:30:26.849Z,2.33
2022-10-07T20:33:14.626Z,2.33
2022-10-07T20:36:03.378Z,1.97
2022-10-07T20:39:16.968Z,2.40
2022-10-07T20:42:25.752Z,2.43
2022-10-07T20:45:13.779Z,2.20
2022-10-07T20:48:02.097Z,2.40
2022-10-07T20:50:50.428Z,2.20
2022-10-07T20:53:38.145Z,2.20
2022-10-07T20:56:26.034Z,2.30
2022-10-07T20:59:14.503Z,3.43
2022-10-07T21:02:07.246Z,2.17
2022-10-07T21:04:59.140Z,2.30
2022-10-07T21:07:49.258Z,2.00
2022-10-07T21:10:40.457Z,2.53
2022-10-07T21:13:28.392Z,2.30
2022-10-07T21:16:16.718Z,3.00
2022-10-07T21:19:04.873Z,2.53
2022-10-07T21:21:52.605Z,2.60
2022-10-07T21:24:40.315Z,2.43
2022-10-07T21:27:28.723Z,2.77
2022-10-07T21:30:16.783Z,2.40
2022-10-07T21:33:04.739Z,2.80
2022-10-07T21:35:52.575Z,2.40
2022-10-07T21:38:40.502Z,2.53
2022-10-07T21:41:34.298Z,2.30
2022-10-07T21:44:22.382Z,2.40
2022-10-07T21:47:10.367Z,2.23
2022-10-07T21:49:58.354Z,2.63
2022-10-07T21:52:47.355Z,2.53
2022-10-07T21:55:37.598Z,2.90
2022-10-07T21:58:26.941Z,2.27
2022-10-07T22:01:16.375Z,2.40
2022-10-07T22:04:04.738Z,2.30
2022-10-07T22:07:11.690Z,2.93
2022-10-07T22:09:59.906Z,3.10
2022-10-07T22:12:48.371Z,2.93
2022-10-07T22:15:37.514Z,2.50
2022-10-07T22:18:25.773Z,2.40
2022-10-07T22:21:18.543Z,2.33
2022-10-07T22:24:07.506Z,2.23
2022-10-07T22:26:55.733Z,2.50
2022-10-07T22:29:43.938Z,2.60
2022-10-07T22:32:32.127Z,2.20
2022-10-07T22:35:35.020Z,2.63
2022-10-07T22:38:25.271Z,2.43
2022-10-07T22:41:14.906Z,2.20
2022-10-07T22:44:03.129Z,2.83
2022-10-07T22:46:51.355Z,2.90
2022-10-07T22:49:40.500Z,3.03
2022-10-07T22:52:29.195Z,2.70
2022-10-07T22:55:18.016Z,2.80
2022-10-07T22:58:06.259Z,3.23
2022-10-07T23:00:54.488Z,2.37
2022-10-07T23:03:44.046Z,2.73
2022-10-07T23:06:33.306Z,3.30
2022-10-07T23:09:21.554Z,2.77
2022-10-07T23:12:09.751Z,3.20
2022-10-07T23:14:57.942Z,2.70
2022-10-07T23:17:46.255Z,2.33
2022-10-07T23:20:34.459Z,2.87
2022-10-07T23:23:22.663Z,2.50
2022-10-07T23:26:12.465Z,2.97
2022-10-07T23:29:01.741Z,2.60
2022-10-07T23:31:49.981Z,3.17
2022-10-07T23:34:38.216Z,2.67
2022-10-07T23:37:26.447Z,3.17
2022-10-07T23:40:14.749Z,2.53
2022-10-07T23:43:03.005Z,2.80
2022-10-07T23:45:51.245Z,3.13
2022-10-07T23:48:39.556Z,2.80
2022-10-07T23:51:28.876Z,2.63
2022-10-07T23:54:17.239Z,2.97
2022-10-07T23:57:05.467Z,2.73
2022-10-07T23:59:53.726Z,2.87
